モントリオール/トルドー の空港の天気 - METARとTAF

モントリオール・ピエール・エリオット・トルドー国際空港 ( CYUL / YUL ) - カナダ ケベック州モントリオール
飛行場実況気象(Metar)
観測時間12/12 19:00 EST (12/13 00:00 UTC)
風向・風速南南東 6m/s
視程10km以上
天気現象
全天の8割程度の雲 雲底高度 1220m
全天を覆う雲 雲底高度 2740m
気温-5℃
湿度63%
気圧1036hPa
METARCYUL 130000Z 15011KT 15SM BKN040 OVC090 M05/M11 A3058 RMK SC6AS2 SLP360
過去の天気等 Google飛行場航空写真 Wunderground天気予報

過去48時間のMETAR

飛行場予報(TAF)
発表時間: 12/12 18:38 EST (12/12 23:38 UTC)
予報対象時間: 12日19時 EST ~ 13日19時 EST
風向・風速南南東 4m/s
視程10km以上
全天の4割程度の雲 雲底高度 910m
全天を覆う雲 雲底高度 2740m
12日19時 EST ~ 12日22時 EST に一時的に
全天の8割程度の雲 雲底高度 910m
全天を覆う雲 雲底高度 2130m
12日22時 EST から
風向・風速南南東 4m/s
視程10km以上
全天の8割程度の雲 雲底高度 2130m
全天の8割程度の雲 雲底高度 3660m
13日4時 EST から
風向・風速南南東 4m/s
視程10km以上
全天の4割程度の雲 雲底高度 2130m
全天の8割程度の雲 雲底高度 3660m
13日10時 EST から
風向・風速南南東 5m/s
視程10km以上
全天の4割程度の雲 雲底高度 5490m
全天の8割程度の雲 雲底高度 7320m
TAF CYUL 122338Z 1300/1324 16008KT P6SM SCT030 OVC090
TEMPO 1300/1303 BKN030 OVC070
FM130300 15008KT P6SM BKN070 BKN120
FM130900 15008KT P6SM SCT070 BKN120
FM131500 15010KT P6SM SCT180 BKN240 RMK NXT FCST BY 130300Z